DeWitt, MI (48820)

6:55 PM EST on January 23, 2017 (GMT -0500)
Springbrook Hills East | | Change Station
Active Advisory: Flood Advisory

Elev 856 ft 42.85 °N, 84.58 °W | Updated 12 seconds ago

Rain
Rain
38.7 °F
Feels Like 39 °F
N
0.4
Wind Variable Wind from NNE
Gusts 2.5 mph

Today
High -- | Low -- °F
--% Chance of Precip.
Yesterday
High -- | Low -- °F
Precip. -- in
Pressure 29.71 in
Visibility 6.0 miles
Clouds Overcast 400 ft
Windchill 39 °F
Dew Point 37 °F
Humidity 95%
Rainfall 0.11 in
Snow Depth Not available.
8:00 AM 5:39 PM
Waning Crescent, 15% visible
SPECI KLAN 232300Z 35005KT 6SM -RA BR OVC004 04/02 A2971 RMK AO2 P0000 T00390022
Pressure 29.71 in
Visibility 6.0 miles
Clouds Overcast 400 ft
Windchill 39 °F
Dew Point 37 °F
Humidity 95%
Rainfall 0.11 in
Snow Depth Not available.
8:00 AM 5:39 PM
Waning Crescent, 15% visible
SPECI KLAN 232300Z 35005KT 6SM -RA BR OVC004 04/02 A2971 RMK AO2 P0000 T00390022

Get Your Daily Forecast Email!

Thanks for signing up!

Be on the lookout for a verification email in your inbox.

You'll start receiving the daily forecast at 8 AM.

×

10-Day Weather Forecast

Almanac

Astronomy

Jan. 23, 2017 Rise Set
Actual Time
Civil Twilight
Nautical Twilight
Astronomical Twilight
Moon
Length of Visible Light
Length of Day
Tomorrow will be .
, % of the Moon is Illuminated

Today's Extremes

State Highs State Lows

Community

WunderPhotos

Upload Photos

1,962,540 photos uploaded!

WunderBlog® & News

Nearby

Air Quality

  Air Quality AQ Index Pollutant
Not available.

Snow Depth

Station Depth Elevation

Earthquake Activity

City Distance Mag. Time & Date
Minimum magnitude displayed is 2.5.

Coastal Water Temperatures

Place Temperature

Stations

Nearby Weather Stations

Station Location Temp. Windchill Dew Point Humidity Wind Precip. Elev Updated Type
                   

Watches & Warnings

Flood Advisory
Issued: 10:58 AM EST Jan. 23, 2017 – National Weather Service

The Flood Advisory continues for
the Maple River at Maple Rapids
* until further notice.
* At 10 am Monday the stage was 8.4 feet.
* Bankfull stage is 7.0 feet.
* Flood stage is 9.0 feet.
* Forecast, the river will rise to near 8.4 feet by this afternoon.
* Impact, at 9.0 feet... expect minor flooding of County line Road and
a home along County line Road.


Lat... Lon 4298 8493 4308 8468 4310 8457 4317 8456
      4314 8471 4302 8495




1058 am EST Mon Jan 23 2017

The Flood Advisory continues for
the Looking Glass river near Eagle
* until Friday afternoon.
* At 09 am Monday the stage was 5.3 feet.
* Bankfull stage is 5.0 feet.
* Flood stage is 7.0 feet.
* Forecast, the river will rise to near 5.3 feet by this afternoon.
* Impact, at 5.0 feet... river is bankfull.


Lat... Lon 4283 8489 4279 8474 4281 8455 4287 8455
      4286 8474 4290 8489